URKA

Details ICAO URKA (AAQ)
Name Vityazevo
Region Russia
Timezone Europe/Moscow (UTC+3.0)
Plans Departing 162
Arriving 162
Stats Elevation 173 ft / 53 m (AMSL)
Location 45.001895° 37.347609°
Runways 2
Magnetic Variation 7.214° E
Sunrise 2018-05-24 01:54:25 UTC / 2018-05-24 04:54:25 Local
Sunset 2018-05-24 17:03:19 UTC / 2018-05-24 20:03:19 Local
Advertisement - Login to hide

Runways

ID Width Length Bearing (true) Bearing (mag) Surface Threshold Offset Overrun Length
04 138 ft / 42 m 7,961 ft / 2,426 m 43.79° 36.58° Concrete 0 ft / 0 m 157 ft / 48 m
04R 312 ft / 95 m 8,009 ft / 2,441 m 43.78° 36.57° Grass 0 ft / 0 m 0 ft / 0 m
22 138 ft / 42 m 7,961 ft / 2,426 m 223.81° 216.60° Concrete 0 ft / 0 m 164 ft / 50 m
22L 312 ft / 95 m 8,009 ft / 2,441 m 223.80° 216.59° Grass 0 ft / 0 m 0 ft / 0 m

Map

Weather


0- 5 10 15 20 25 30 35+ Temperature / ° C

Clouds and Precipitation
Forecast for 2018-05-24 00:00 UTC. Updated 2 hours ago

Ground ~20,000 ft ~40,000 ft Winds

METAR

URKA 240030Z AUTO 07004MPS 9999 // NCD 20/18 Q1014 RMK QFE757/1009

TAF

TAF AMD TAF AMD URKA 232052Z 2321/2421 CNL

Frequencies

Tower 119.80 MHz ANAPA KRUG
Approach 118.70 MHz ANAPA APP
Warning: Do not use this data for real-world aviation or navigation. No guarantee of current accuracy is given.